createdAt,value
2023-01-18T00:04:42.967Z,99314.88
2023-01-18T00:09:41.834Z,99307.69
2023-01-18T00:14:43.565Z,99307.22
2023-01-18T00:19:44.895Z,99320.22
2023-01-18T00:24:56.828Z,99313.41
2023-01-18T00:30:01.427Z,99319.75
2023-01-18T00:35:07.373Z,99304.06
2023-01-18T00:40:07.377Z,99321.53
2023-01-18T00:45:10.171Z,99322.88
2023-01-18T00:50:30.552Z,99317.44
2023-01-18T00:55:29.561Z,99320.38
2023-01-18T01:00:35.986Z,99318.84
2023-01-18T01:05:52.724Z,99308.81
2023-01-18T01:10:58.240Z,99309.38
2023-01-18T01:16:30.183Z,99305.75
2023-01-18T01:21:47.534Z,99294.63
2023-01-18T01:26:46.430Z,99305.63
2023-01-18T01:32:02.628Z,99306.59
2023-01-18T01:37:06.684Z,99312.28
2023-01-18T01:42:06.500Z,99286.56
2023-01-18T01:47:10.739Z,99296.16
2023-01-18T01:52:27.840Z,99291.56
2023-01-18T01:57:32.433Z,99290.19
2023-01-18T02:02:36.012Z,99282.09
2023-01-18T02:07:37.598Z,99292.69
2023-01-18T02:12:43.478Z,99278.47
2023-01-18T02:18:01.129Z,99293.38
2023-01-18T02:23:27.964Z,99270.41
2023-01-18T02:28:36.593Z,99269.28
2023-01-18T02:33:44.045Z,99279.72
2023-01-18T02:38:49.286Z,99285.44
2023-01-18T02:44:16.609Z,99274.03
2023-01-18T02:49:23.249Z,99277.38
2023-01-18T02:54:24.402Z,99281.84
2023-01-18T03:00:31.175Z,99299.94
2023-01-18T03:05:46.530Z,99294.09
2023-01-18T03:10:57.931Z,99285.72
2023-01-18T03:16:08.469Z,99267.75
2023-01-18T03:21:17.469Z,99266.22
2023-01-18T03:26:24.467Z,99282.94
2023-01-18T03:31:56.400Z,99267.03
2023-01-18T03:37:01.104Z,99278.19
2023-01-18T03:42:14.927Z,99270.00
2023-01-18T03:47:16.039Z,99269.53
2023-01-18T03:52:21.270Z,99274.44
2023-01-18T03:57:28.079Z,99281.81
2023-01-18T04:02:29.373Z,99296.59
2023-01-18T04:07:28.129Z,99294.91
2023-01-18T04:12:27.339Z,99300.22
2023-01-18T04:17:29.742Z,99303.00
2023-01-18T04:22:32.440Z,99288.13
2023-01-18T04:27:49.318Z,99308.56
2023-01-18T04:32:50.209Z,99305.94
2023-01-18T04:37:53.019Z,99319.03
2023-01-18T04:42:57.682Z,99334.34
2023-01-18T04:47:58.511Z,99323.59
2023-01-18T04:52:57.589Z,99324.44
2023-01-18T04:58:03.398Z,99329.59
2023-01-18T05:03:12.748Z,99338.50
2023-01-18T05:08:11.564Z,99342.53
2023-01-18T05:13:12.938Z,99349.78
2023-01-18T05:18:27.156Z,99374.25
2023-01-18T05:23:26.004Z,99356.03
2023-01-18T05:28:30.083Z,99373.44
2023-01-18T05:33:32.787Z,99361.44
2023-01-18T05:38:35.472Z,99371.91
2023-01-18T05:43:36.369Z,99380.66
2023-01-18T05:48:39.981Z,99380.97
2023-01-18T05:53:42.544Z,99389.91
2023-01-18T05:58:44.328Z,99400.19
2023-01-18T06:03:48.169Z,99399.38
2023-01-18T06:08:55.591Z,99391.28
2023-01-18T06:13:59.810Z,99396.34
2023-01-18T06:19:00.114Z,99402.22
2023-01-18T06:24:01.325Z,99409.56
2023-01-18T06:29:00.641Z,99409.88
2023-01-18T06:34:11.128Z,99412.25
2023-01-18T06:39:21.576Z,99429.22
2023-01-18T06:44:20.492Z,99428.38
2023-01-18T06:49:21.196Z,99426.72
2023-01-18T06:54:25.231Z,99439.81
2023-01-18T06:59:24.190Z,99435.25
2023-01-18T07:04:25.750Z,99427.31
2023-01-18T07:09:24.721Z,99436.81
2023-01-18T07:14:23.728Z,99432.22
2023-01-18T07:19:22.941Z,99443.69
2023-01-18T07:24:25.668Z,99446.31
2023-01-18T07:29:24.694Z,99451.34
2023-01-18T07:34:23.880Z,99440.50
2023-01-18T07:39:26.195Z,99453.56
2023-01-18T07:44:28.060Z,99466.69
2023-01-18T07:49:29.197Z,99454.56
2023-01-18T07:54:33.395Z,99459.41
2023-01-18T07:59:33.637Z,99480.06
2023-01-18T08:04:34.425Z,99473.34
2023-01-18T08:09:35.169Z,99454.72
2023-01-18T08:14:48.134Z,99457.22
2023-01-18T08:19:49.633Z,99458.28
2023-01-18T08:25:02.768Z,99469.28
2023-01-18T08:30:19.117Z,99461.97
2023-01-18T08:35:18.320Z,99466.94
2023-01-18T08:40:22.572Z,99450.66
2023-01-18T08:45:25.891Z,99464.84
2023-01-18T08:50:25.206Z,99465.22
2023-01-18T08:55:44.951Z,99458.03
2023-01-18T09:00:44.206Z,99472.78
2023-01-18T09:05:53.116Z,99473.78
2023-01-18T09:10:55.734Z,99452.97
2023-01-18T09:16:00.265Z,99458.13
2023-01-18T09:21:07.178Z,99463.91
2023-01-18T09:26:08.885Z,99475.75
2023-01-18T09:31:17.475Z,99460.69
2023-01-18T09:36:17.475Z,99453.94
2023-01-18T09:41:30.204Z,99474.38
2023-01-18T09:46:29.027Z,99476.97
2023-01-18T09:51:35.988Z,99488.34
2023-01-18T09:56:43.560Z,99473.78
2023-01-18T10:01:42.978Z,99465.13
2023-01-18T10:06:49.356Z,99467.22
2023-01-18T10:11:56.415Z,99477.28
2023-01-18T10:16:58.145Z,99464.25
2023-01-18T10:22:04.495Z,99423.44
2023-01-18T10:27:24.772Z,99465.97
2023-01-18T10:32:27.674Z,99458.94
2023-01-18T10:37:33.558Z,99452.31
2023-01-18T10:42:42.044Z,99464.94
2023-01-18T10:47:40.895Z,99481.94
2023-01-18T10:52:40.318Z,99480.56
2023-01-18T10:57:50.612Z,99484.81
2023-01-18T11:02:50.679Z,99492.69
2023-01-18T11:08:10.752Z,99487.63
2023-01-18T11:13:28.366Z,99500.88
2023-01-18T11:18:27.234Z,99495.91
2023-01-18T11:23:36.872Z,99477.84
2023-01-18T11:28:40.767Z,99482.81
2023-01-18T11:33:49.412Z,99497.19
2023-01-18T11:38:54.957Z,99498.03
2023-01-18T11:44:05.132Z,99497.44
2023-01-18T11:49:19.005Z,99492.91
2023-01-18T11:54:28.606Z,99507.94
2023-01-18T11:59:56.635Z,99495.03
2023-01-18T12:05:31.283Z,99497.47
2023-01-18T12:10:50.831Z,99505.44
2023-01-18T12:16:10.679Z,99490.56
2023-01-18T12:21:13.270Z,99518.88
2023-01-18T12:26:36.728Z,99509.72
2023-01-18T12:31:52.497Z,99519.69
2023-01-18T12:37:13.559Z,99518.88
2023-01-18T12:42:17.268Z,99531.03
2023-01-18T12:47:32.906Z,99537.34
2023-01-18T12:52:36.942Z,99522.84
2023-01-18T12:57:36.968Z,99541.38
2023-01-18T13:02:41.980Z,99550.13
2023-01-18T13:07:46.909Z,99550.06
2023-01-18T13:12:46.123Z,99560.03
2023-01-18T13:17:54.830Z,99561.31
2023-01-18T13:23:17.664Z,99565.31
2023-01-18T13:28:19.954Z,99571.94
2023-01-18T13:33:24.181Z,99573.06
2023-01-18T13:38:40.826Z,99574.94
2023-01-18T13:44:26.963Z,99586.88
2023-01-18T13:49:38.014Z,99602.41
2023-01-18T13:55:01.885Z,99616.69
2023-01-18T14:00:02.513Z,99614.06
2023-01-18T14:05:10.141Z,99618.13
2023-01-18T14:10:25.187Z,99643.25
2023-01-18T14:15:30.790Z,99651.28
2023-01-18T14:21:12.657Z,99659.59
2023-01-18T14:26:12.746Z,99674.41
2023-01-18T14:31:17.904Z,99669.53
2023-01-18T14:36:25.822Z,99672.84
2023-01-18T14:41:24.719Z,99675.38
2023-01-18T14:46:27.600Z,99673.31
2023-01-18T14:51:29.308Z,99682.69
2023-01-18T14:56:29.670Z,99685.56
2023-01-18T15:01:32.311Z,99692.50
2023-01-18T15:06:41.058Z,99691.63
2023-01-18T15:11:44.459Z,99691.25
2023-01-18T15:16:44.170Z,99691.97
2023-01-18T15:21:44.514Z,99716.59
2023-01-18T15:26:47.829Z,99716.22
2023-01-18T15:31:52.606Z,99720.38
2023-01-18T15:36:53.017Z,99726.53
2023-01-18T15:41:53.630Z,99741.16
2023-01-18T15:46:52.467Z,99757.50
2023-01-18T15:51:57.113Z,99767.75
2023-01-18T15:56:59.515Z,99773.28
2023-01-18T16:02:14.658Z,99770.53
2023-01-18T16:07:38.183Z,99791.34
2023-01-18T16:12:37.299Z,99791.16
2023-01-18T16:17:36.891Z,99786.31
2023-01-18T16:22:37.903Z,99796.69
2023-01-18T16:27:48.794Z,99802.44
2023-01-18T16:32:50.064Z,99808.50
2023-01-18T16:37:52.443Z,99826.94
2023-01-18T16:42:59.811Z,99807.13
2023-01-18T16:47:59.663Z,99818.28
2023-01-18T16:53:00.123Z,99812.72
2023-01-18T16:57:58.999Z,99819.75
2023-01-18T17:02:58.180Z,99814.72
2023-01-18T17:07:57.412Z,99823.66
2023-01-18T17:12:59.894Z,99831.50
2023-01-18T17:17:59.051Z,99838.63
2023-01-18T17:22:59.012Z,99828.97
2023-01-18T17:28:00.974Z,99837.34
2023-01-18T17:33:01.885Z,99841.00
2023-01-18T17:38:06.532Z,99846.00
2023-01-18T17:43:16.913Z,99849.34
2023-01-18T17:48:16.494Z,99866.28
2023-01-18T17:53:15.258Z,99873.25
2023-01-18T17:58:15.528Z,99870.31
2023-01-18T18:03:14.451Z,99869.63
2023-01-18T18:08:13.258Z,99880.44
2023-01-18T18:13:12.111Z,99891.66
2023-01-18T18:18:22.589Z,99885.34
2023-01-18T18:23:21.961Z,99884.91
2023-01-18T18:28:21.507Z,99888.25
2023-01-18T18:33:22.077Z,99900.78
2023-01-18T18:38:26.651Z,99910.34
2023-01-18T18:43:25.445Z,99894.25
2023-01-18T18:48:25.795Z,99893.56
2023-01-18T18:53:36.953Z,99890.44
2023-01-18T18:58:37.732Z,99905.53
2023-01-18T19:03:37.904Z,99918.56
2023-01-18T19:08:36.766Z,99923.19
2023-01-18T19:13:35.759Z,99916.31
2023-01-18T19:18:34.776Z,99920.94
2023-01-18T19:23:35.023Z,99916.25
2023-01-18T19:28:33.825Z,99925.63
2023-01-18T19:33:35.143Z,99921.44
2023-01-18T19:38:38.734Z,99937.28
2023-01-18T19:43:44.618Z,99930.56
2023-01-18T19:48:43.740Z,99938.66
2023-01-18T19:53:44.143Z,99933.16
2023-01-18T19:58:42.894Z,99935.44
2023-01-18T20:03:41.743Z,99936.25
2023-01-18T20:08:40.803Z,99936.47
2023-01-18T20:13:44.195Z,99928.09
2023-01-18T20:18:42.919Z,99936.91
2023-01-18T20:23:42.930Z,99939.00
2023-01-18T20:28:43.105Z,99939.06
2023-01-18T20:33:42.824Z,99927.50
2023-01-18T20:38:42.526Z,99927.69
2023-01-18T20:43:42.988Z,99927.09
2023-01-18T20:48:42.008Z,99920.63
2023-01-18T20:53:41.429Z,99915.41
2023-01-18T20:58:42.575Z,99916.69
2023-01-18T21:03:45.356Z,99909.44
2023-01-18T21:08:44.090Z,99913.06
2023-01-18T21:13:44.303Z,99902.94
2023-01-18T21:18:43.247Z,99911.34
2023-01-18T21:23:45.646Z,99916.84
2023-01-18T21:28:55.680Z,99921.47
2023-01-18T21:34:00.743Z,99920.13
2023-01-18T21:38:59.458Z,99920.69
2023-01-18T21:44:16.870Z,99925.66
2023-01-18T21:49:43.020Z,99922.78
2023-01-18T21:54:46.149Z,99918.22
2023-01-18T21:59:46.625Z,99917.16
2023-01-18T22:05:01.107Z,99914.09
2023-01-18T22:10:05.741Z,99902.03
2023-01-18T22:15:07.893Z,99897.69
2023-01-18T22:20:08.819Z,99899.94
2023-01-18T22:25:09.161Z,99892.97
2023-01-18T22:30:10.831Z,99911.91
2023-01-18T22:35:10.205Z,99906.00
2023-01-18T22:40:11.648Z,99897.22
2023-01-18T22:45:12.487Z,99900.47
2023-01-18T22:50:12.641Z,99891.78
2023-01-18T22:55:11.420Z,99886.16
2023-01-18T23:00:13.341Z,99885.31
2023-01-18T23:05:12.394Z,99877.50
2023-01-18T23:10:11.601Z,99883.03
2023-01-18T23:15:31.259Z,99879.38
2023-01-18T23:20:30.430Z,99875.81
2023-01-18T23:25:29.555Z,99854.06
2023-01-18T23:30:29.700Z,99850.34
2023-01-18T23:35:28.437Z,99876.16
2023-01-18T23:40:44.461Z,99868.56
2023-01-18T23:46:03.341Z,99873.03
2023-01-18T23:51:20.330Z,99875.53
2023-01-18T23:56:19.089Z,99871.03
